sensor_id;sensor_type;location;lat;lon;timestamp;temperature;humidity
44855;DHT22;30591;48.228;16.398;2023-06-10T00:02:26;15.00;99.90
44855;DHT22;30591;48.228;16.398;2023-06-10T00:04:55;15.00;99.90
44855;DHT22;30591;48.228;16.398;2023-06-10T00:07:24;15.10;99.90
44855;DHT22;30591;48.228;16.398;2023-06-10T00:09:51;15.20;99.90
44855;DHT22;30591;48.228;16.398;2023-06-10T00:12:19;15.20;99.90
44855;DHT22;30591;48.228;16.398;2023-06-10T00:14:47;15.20;99.90
44855;DHT22;30591;48.228;16.398;2023-06-10T00:17:17;15.10;99.90
44855;DHT22;30591;48.228;16.398;2023-06-10T00:19:44;15.00;99.90
44855;DHT22;30591;48.228;16.398;2023-06-10T00:22:14;15.00;99.90
44855;DHT22;30591;48.228;16.398;2023-06-10T00:24:41;15.00;99.90
44855;DHT22;30591;48.228;16.398;2023-06-10T00:27:09;15.10;99.90
44855;DHT22;30591;48.228;16.398;2023-06-10T00:29:37;15.00;99.90
44855;DHT22;30591;48.228;16.398;2023-06-10T00:32:06;15.00;99.90
44855;DHT22;30591;48.228;16.398;2023-06-10T00:34:34;15.10;99.90
44855;DHT22;30591;48.228;16.398;2023-06-10T00:37:02;15.20;99.90
44855;DHT22;30591;48.228;16.398;2023-06-10T00:39:30;15.30;99.90
44855;DHT22;30591;48.228;16.398;2023-06-10T00:41:57;15.40;99.90
44855;DHT22;30591;48.228;16.398;2023-06-10T00:44:26;15.50;99.90
44855;DHT22;30591;48.228;16.398;2023-06-10T00:46:54;15.50;99.90
44855;DHT22;30591;48.228;16.398;2023-06-10T00:49:23;15.60;99.90
44855;DHT22;30591;48.228;16.398;2023-06-10T00:51:52;15.60;99.90
44855;DHT22;30591;48.228;16.398;2023-06-10T00:54:20;15.70;99.90
44855;DHT22;30591;48.228;16.398;2023-06-10T00:56:49;15.70;99.90
44855;DHT22;30591;48.228;16.398;2023-06-10T00:59:17;15.70;99.90
44855;DHT22;30591;48.228;16.398;2023-06-10T01:01:45;15.80;99.90
44855;DHT22;30591;48.228;16.398;2023-06-10T01:04:14;15.80;99.90
44855;DHT22;30591;48.228;16.398;2023-06-10T01:10:12;15.70;99.90
44855;DHT22;30591;48.228;16.398;2023-06-10T01:13:02;15.80;99.90
44855;DHT22;30591;48.228;16.398;2023-06-10T01:15:31;15.80;99.90
44855;DHT22;30591;48.228;16.398;2023-06-10T01:18:01;15.80;99.90
44855;DHT22;30591;48.228;16.398;2023-06-10T01:20:31;15.80;99.90
44855;DHT22;30591;48.228;16.398;2023-06-10T01:23:00;15.80;99.90
44855;DHT22;30591;48.228;16.398;2023-06-10T01:25:30;15.80;99.90
44855;DHT22;30591;48.228;16.398;2023-06-10T01:28:10;15.80;99.90
44855;DHT22;30591;48.228;16.398;2023-06-10T01:33:27;15.70;99.90
44855;DHT22;30591;48.228;16.398;2023-06-10T01:35:57;15.70;99.90
44855;DHT22;30591;48.228;16.398;2023-06-10T01:38:27;15.70;99.90
44855;DHT22;30591;48.228;16.398;2023-06-10T01:40:58;15.70;99.90
44855;DHT22;30591;48.228;16.398;2023-06-10T01:43:26;15.70;99.90
44855;DHT22;30591;48.228;16.398;2023-06-10T01:45:53;15.60;99.90
44855;DHT22;30591;48.228;16.398;2023-06-10T01:48:21;15.60;99.90
44855;DHT22;30591;48.228;16.398;2023-06-10T01:50:48;15.60;99.90
44855;DHT22;30591;48.228;16.398;2023-06-10T01:53:16;15.60;99.90
44855;DHT22;30591;48.228;16.398;2023-06-10T01:55:43;15.60;99.90
44855;DHT22;30591;48.228;16.398;2023-06-10T01:58:11;15.60;99.90
44855;DHT22;30591;48.228;16.398;2023-06-10T02:00:39;15.60;99.90
44855;DHT22;30591;48.228;16.398;2023-06-10T02:03:08;15.70;99.90
44855;DHT22;30591;48.228;16.398;2023-06-10T02:05:35;15.60;99.90
44855;DHT22;30591;48.228;16.398;2023-06-10T02:08:03;15.60;99.90
44855;DHT22;30591;48.228;16.398;2023-06-10T02:10:30;15.60;99.90
44855;DHT22;30591;48.228;16.398;2023-06-10T02:12:58;15.70;99.90
44855;DHT22;30591;48.228;16.398;2023-06-10T02:15:25;15.70;99.90
44855;DHT22;30591;48.228;16.398;2023-06-10T02:17:52;15.70;99.90
44855;DHT22;30591;48.228;16.398;2023-06-10T02:20:21;15.60;99.90
44855;DHT22;30591;48.228;16.398;2023-06-10T02:22:49;15.60;99.90
44855;DHT22;30591;48.228;16.398;2023-06-10T02:25:16;15.70;99.90
44855;DHT22;30591;48.228;16.398;2023-06-10T02:27:44;15.70;99.90
44855;DHT22;30591;48.228;16.398;2023-06-10T02:30:12;15.70;99.90
44855;DHT22;30591;48.228;16.398;2023-06-10T02:32:40;15.70;99.90
44855;DHT22;30591;48.228;16.398;2023-06-10T02:35:08;15.70;99.90
44855;DHT22;30591;48.228;16.398;2023-06-10T02:37:39;15.70;99.90
44855;DHT22;30591;48.228;16.398;2023-06-10T02:40:09;15.70;99.90
44855;DHT22;30591;48.228;16.398;2023-06-10T02:42:38;15.70;99.90
44855;DHT22;30591;48.228;16.398;2023-06-10T02:45:06;15.80;99.90
44855;DHT22;30591;48.228;16.398;2023-06-10T02:47:39;15.70;99.90
44855;DHT22;30591;48.228;16.398;2023-06-10T02:50:09;15.60;99.90
44855;DHT22;30591;48.228;16.398;2023-06-10T02:52:49;15.50;99.90
44855;DHT22;30591;48.228;16.398;2023-06-10T02:55:17;15.50;99.90
44855;DHT22;30591;48.228;16.398;2023-06-10T02:57:50;15.50;99.90
44855;DHT22;30591;48.228;16.398;2023-06-10T03:00:19;15.50;99.90
44855;DHT22;30591;48.228;16.398;2023-06-10T03:02:49;15.50;99.90
44855;DHT22;30591;48.228;16.398;2023-06-10T03:05:21;15.50;99.90
44855;DHT22;30591;48.228;16.398;2023-06-10T03:07:52;15.60;99.90
44855;DHT22;30591;48.228;16.398;2023-06-10T03:10:20;15.70;99.90
44855;DHT22;30591;48.228;16.398;2023-06-10T03:12:48;15.80;99.90
44855;DHT22;30591;48.228;16.398;2023-06-10T03:15:16;15.80;99.90
44855;DHT22;30591;48.228;16.398;2023-06-10T03:17:43;15.80;99.90
44855;DHT22;30591;48.228;16.398;2023-06-10T03:20:11;15.80;99.90
44855;DHT22;30591;48.228;16.398;2023-06-10T03:22:40;16.00;99.90
44855;DHT22;30591;48.228;16.398;2023-06-10T03:25:09;16.00;99.90
44855;DHT22;30591;48.228;16.398;2023-06-10T03:27:45;16.00;99.90
44855;DHT22;30591;48.228;16.398;2023-06-10T03:30:14;16.00;99.90
44855;DHT22;30591;48.228;16.398;2023-06-10T03:32:43;16.10;99.90
44855;DHT22;30591;48.228;16.398;2023-06-10T03:35:13;16.10;99.90
44855;DHT22;30591;48.228;16.398;2023-06-10T03:37:41;16.20;99.90
44855;DHT22;30591;48.228;16.398;2023-06-10T03:40:09;16.20;99.90
44855;DHT22;30591;48.228;16.398;2023-06-10T03:42:39;16.30;99.90
44855;DHT22;30591;48.228;16.398;2023-06-10T03:45:08;16.40;99.90
44855;DHT22;30591;48.228;16.398;2023-06-10T03:47:38;16.40;99.90
44855;DHT22;30591;48.228;16.398;2023-06-10T03:50:11;16.50;99.90
44855;DHT22;30591;48.228;16.398;2023-06-10T03:52:40;16.70;99.90
44855;DHT22;30591;48.228;16.398;2023-06-10T03:55:09;16.70;99.90
44855;DHT22;30591;48.228;16.398;2023-06-10T03:57:43;16.70;99.90
44855;DHT22;30591;48.228;16.398;2023-06-10T04:00:11;16.70;99.90
44855;DHT22;30591;48.228;16.398;2023-06-10T04:02:42;16.80;99.90
44855;DHT22;30591;48.228;16.398;2023-06-10T04:05:20;17.00;99.90
44855;DHT22;30591;48.228;16.398;2023-06-10T04:07:52;16.90;99.90
44855;DHT22;30591;48.228;16.398;2023-06-10T04:10:19;17.10;99.90
44855;DHT22;30591;48.228;16.398;2023-06-10T04:12:47;17.10;99.90
44855;DHT22;30591;48.228;16.398;2023-06-10T04:15:15;17.10;99.90
44855;DHT22;30591;48.228;16.398;2023-06-10T04:17:42;17.20;99.90
44855;DHT22;30591;48.228;16.398;2023-06-10T04:20:12;17.20;99.90
44855;DHT22;30591;48.228;16.398;2023-06-10T04:22:43;17.30;99.90
44855;DHT22;30591;48.228;16.398;2023-06-10T04:25:11;17.30;99.90
44855;DHT22;30591;48.228;16.398;2023-06-10T04:27:40;17.30;99.90
44855;DHT22;30591;48.228;16.398;2023-06-10T04:30:08;17.30;99.90
44855;DHT22;30591;48.228;16.398;2023-06-10T04:32:37;17.40;99.90
44855;DHT22;30591;48.228;16.398;2023-06-10T04:35:11;17.40;99.90
44855;DHT22;30591;48.228;16.398;2023-06-10T04:37:40;17.40;99.90
44855;DHT22;30591;48.228;16.398;2023-06-10T04:40:10;17.50;99.90
44855;DHT22;30591;48.228;16.398;2023-06-10T04:42:38;17.50;99.90
44855;DHT22;30591;48.228;16.398;2023-06-10T04:45:07;17.50;99.90
44855;DHT22;30591;48.228;16.398;2023-06-10T04:47:35;17.40;99.90
44855;DHT22;30591;48.228;16.398;2023-06-10T04:50:05;17.50;99.90
44855;DHT22;30591;48.228;16.398;2023-06-10T04:52:32;17.50;99.90
44855;DHT22;30591;48.228;16.398;2023-06-10T04:55:02;17.40;99.90
44855;DHT22;30591;48.228;16.398;2023-06-10T04:57:30;17.40;99.90
44855;DHT22;30591;48.228;16.398;2023-06-10T04:59:57;17.40;99.90
44855;DHT22;30591;48.228;16.398;2023-06-10T05:02:24;17.30;99.90
44855;DHT22;30591;48.228;16.398;2023-06-10T05:04:52;17.40;99.90
44855;DHT22;30591;48.228;16.398;2023-06-10T05:07:22;17.40;99.90
44855;DHT22;30591;48.228;16.398;2023-06-10T05:09:49;17.40;99.90
44855;DHT22;30591;48.228;16.398;2023-06-10T05:12:17;17.40;99.90
44855;DHT22;30591;48.228;16.398;2023-06-10T05:14:44;17.40;99.90
44855;DHT22;30591;48.228;16.398;2023-06-10T05:17:11;17.40;99.90
44855;DHT22;30591;48.228;16.398;2023-06-10T05:19:39;17.40;99.90
44855;DHT22;30591;48.228;16.398;2023-06-10T05:22:09;17.30;99.90
44855;DHT22;30591;48.228;16.398;2023-06-10T05:24:36;17.30;99.90
44855;DHT22;30591;48.228;16.398;2023-06-10T05:27:04;17.40;99.90
44855;DHT22;30591;48.228;16.398;2023-06-10T05:29:32;17.40;99.90
44855;DHT22;30591;48.228;16.398;2023-06-10T05:32:00;17.40;99.90
44855;DHT22;30591;48.228;16.398;2023-06-10T05:34:36;17.50;99.90
44855;DHT22;30591;48.228;16.398;2023-06-10T05:37:04;17.50;99.90
44855;DHT22;30591;48.228;16.398;2023-06-10T05:39:32;17.50;99.90
44855;DHT22;30591;48.228;16.398;2023-06-10T05:41:59;17.50;99.90
44855;DHT22;30591;48.228;16.398;2023-06-10T05:44:28;17.50;99.90
44855;DHT22;30591;48.228;16.398;2023-06-10T05:46:56;17.50;99.90
44855;DHT22;30591;48.228;16.398;2023-06-10T05:49:23;17.60;99.90
44855;DHT22;30591;48.228;16.398;2023-06-10T05:51:50;17.60;99.90
44855;DHT22;30591;48.228;16.398;2023-06-10T05:54:19;17.70;99.90
44855;DHT22;30591;48.228;16.398;2023-06-10T05:56:47;17.60;99.90
44855;DHT22;30591;48.228;16.398;2023-06-10T05:59:14;17.60;99.90
44855;DHT22;30591;48.228;16.398;2023-06-10T06:01:41;17.70;99.90
44855;DHT22;30591;48.228;16.398;2023-06-10T06:04:08;17.70;99.90
44855;DHT22;30591;48.228;16.398;2023-06-10T06:06:38;17.70;99.90
44855;DHT22;30591;48.228;16.398;2023-06-10T06:09:07;17.70;99.90
44855;DHT22;30591;48.228;16.398;2023-06-10T06:11:34;17.70;99.90
44855;DHT22;30591;48.228;16.398;2023-06-10T06:14:02;17.90;99.90
44855;DHT22;30591;48.228;16.398;2023-06-10T06:16:30;17.90;99.90
44855;DHT22;30591;48.228;16.398;2023-06-10T06:18:57;17.90;99.90
44855;DHT22;30591;48.228;16.398;2023-06-10T06:21:25;17.90;99.90
44855;DHT22;30591;48.228;16.398;2023-06-10T06:23:53;18.00;99.90
44855;DHT22;30591;48.228;16.398;2023-06-10T06:26:20;18.20;99.90
44855;DHT22;30591;48.228;16.398;2023-06-10T06:28:48;18.20;99.90
44855;DHT22;30591;48.228;16.398;2023-06-10T06:31:15;18.20;99.90
44855;DHT22;30591;48.228;16.398;2023-06-10T06:33:43;18.00;99.90
44855;DHT22;30591;48.228;16.398;2023-06-10T06:36:10;18.00;99.90
44855;DHT22;30591;48.228;16.398;2023-06-10T06:38:38;18.10;99.90
44855;DHT22;30591;48.228;16.398;2023-06-10T06:41:05;18.10;99.90
44855;DHT22;30591;48.228;16.398;2023-06-10T06:43:34;18.20;99.90
44855;DHT22;30591;48.228;16.398;2023-06-10T06:46:20;18.20;99.90
44855;DHT22;30591;48.228;16.398;2023-06-10T06:48:48;18.30;99.90
44855;DHT22;30591;48.228;16.398;2023-06-10T06:51:16;18.50;99.90
44855;DHT22;30591;48.228;16.398;2023-06-10T06:53:43;18.60;99.90
44855;DHT22;30591;48.228;16.398;2023-06-10T06:56:13;18.40;99.90
44855;DHT22;30591;48.228;16.398;2023-06-10T06:58:41;18.30;99.90
44855;DHT22;30591;48.228;16.398;2023-06-10T07:01:08;18.20;99.90
44855;DHT22;30591;48.228;16.398;2023-06-10T07:03:36;18.20;99.90
44855;DHT22;30591;48.228;16.398;2023-06-10T07:06:03;18.30;99.90
44855;DHT22;30591;48.228;16.398;2023-06-10T07:08:30;18.50;99.90
44855;DHT22;30591;48.228;16.398;2023-06-10T07:10:58;18.50;99.90
44855;DHT22;30591;48.228;16.398;2023-06-10T07:13:25;18.50;99.90
44855;DHT22;30591;48.228;16.398;2023-06-10T07:15:52;18.40;99.90
44855;DHT22;30591;48.228;16.398;2023-06-10T07:18:20;18.30;99.90
44855;DHT22;30591;48.228;16.398;2023-06-10T07:20:47;18.40;99.90
44855;DHT22;30591;48.228;16.398;2023-06-10T07:23:14;18.30;99.90
44855;DHT22;30591;48.228;16.398;2023-06-10T07:25:42;18.40;99.90
44855;DHT22;30591;48.228;16.398;2023-06-10T07:28:09;18.40;99.90
44855;DHT22;30591;48.228;16.398;2023-06-10T07:30:37;18.40;99.90
44855;DHT22;30591;48.228;16.398;2023-06-10T07:49:31;19.60;99.90
44855;DHT22;30591;48.228;16.398;2023-06-10T07:51:58;18.30;99.90
44855;DHT22;30591;48.228;16.398;2023-06-10T07:54:26;18.50;99.90
44855;DHT22;30591;48.228;16.398;2023-06-10T07:56:56;18.60;99.90
44855;DHT22;30591;48.228;16.398;2023-06-10T07:59:23;18.60;99.90
44855;DHT22;30591;48.228;16.398;2023-06-10T08:01:53;18.70;99.90
44855;DHT22;30591;48.228;16.398;2023-06-10T08:04:20;18.80;99.90
44855;DHT22;30591;48.228;16.398;2023-06-10T08:06:48;19.00;99.90
44855;DHT22;30591;48.228;16.398;2023-06-10T08:09:16;19.10;99.90
44855;DHT22;30591;48.228;16.398;2023-06-10T08:11:46;19.30;99.90
44855;DHT22;30591;48.228;16.398;2023-06-10T08:14:15;19.30;99.90
44855;DHT22;30591;48.228;16.398;2023-06-10T08:16:43;19.60;99.90
44855;DHT22;30591;48.228;16.398;2023-06-10T08:19:11;19.90;99.90
44855;DHT22;30591;48.228;16.398;2023-06-10T08:21:38;20.00;99.90
44855;DHT22;30591;48.228;16.398;2023-06-10T08:24:07;20.00;99.90
44855;DHT22;30591;48.228;16.398;2023-06-10T08:26:34;19.80;99.90
44855;DHT22;30591;48.228;16.398;2023-06-10T08:29:02;19.60;99.90
44855;DHT22;30591;48.228;16.398;2023-06-10T08:31:29;19.90;99.90
44855;DHT22;30591;48.228;16.398;2023-06-10T08:33:57;20.00;99.90
44855;DHT22;30591;48.228;16.398;2023-06-10T08:36:24;20.20;99.90
44855;DHT22;30591;48.228;16.398;2023-06-10T08:38:51;20.30;99.90
44855;DHT22;30591;48.228;16.398;2023-06-10T08:41:19;20.30;99.90
44855;DHT22;30591;48.228;16.398;2023-06-10T08:44:01;20.50;99.90
44855;DHT22;30591;48.228;16.398;2023-06-10T08:46:32;20.50;99.90
44855;DHT22;30591;48.228;16.398;2023-06-10T08:49:04;20.40;99.90
44855;DHT22;30591;48.228;16.398;2023-06-10T08:51:35;20.20;99.90
44855;DHT22;30591;48.228;16.398;2023-06-10T08:54:17;20.00;99.90
44855;DHT22;30591;48.228;16.398;2023-06-10T08:56:51;20.10;99.90
44855;DHT22;30591;48.228;16.398;2023-06-10T08:59:21;20.30;99.90
44855;DHT22;30591;48.228;16.398;2023-06-10T09:01:50;20.20;99.90
44855;DHT22;30591;48.228;16.398;2023-06-10T09:04:18;20.30;99.90
44855;DHT22;30591;48.228;16.398;2023-06-10T09:06:49;20.20;99.90
44855;DHT22;30591;48.228;16.398;2023-06-10T09:09:18;20.30;99.90
44855;DHT22;30591;48.228;16.398;2023-06-10T09:11:47;21.10;99.90
44855;DHT22;30591;48.228;16.398;2023-06-10T09:14:14;21.30;99.90
44855;DHT22;30591;48.228;16.398;2023-06-10T09:16:43;21.20;99.90
44855;DHT22;30591;48.228;16.398;2023-06-10T09:19:16;21.10;99.90
44855;DHT22;30591;48.228;16.398;2023-06-10T09:21:43;21.00;99.90
44855;DHT22;30591;48.228;16.398;2023-06-10T09:24:11;20.90;99.90
44855;DHT22;30591;48.228;16.398;2023-06-10T09:26:38;21.00;99.90
44855;DHT22;30591;48.228;16.398;2023-06-10T09:29:07;21.10;99.90
44855;DHT22;30591;48.228;16.398;2023-06-10T09:31:39;21.10;99.90
44855;DHT22;30591;48.228;16.398;2023-06-10T09:34:12;21.40;99.90
44855;DHT22;30591;48.228;16.398;2023-06-10T09:36:41;21.30;99.90
44855;DHT22;30591;48.228;16.398;2023-06-10T09:39:17;21.70;99.90
44855;DHT22;30591;48.228;16.398;2023-06-10T09:41:45;22.10;99.90
44855;DHT22;30591;48.228;16.398;2023-06-10T09:44:15;22.20;99.90
44855;DHT22;30591;48.228;16.398;2023-06-10T09:46:45;22.10;99.90
44855;DHT22;30591;48.228;16.398;2023-06-10T09:49:13;22.10;99.90
44855;DHT22;30591;48.228;16.398;2023-06-10T09:51:54;21.60;99.90
44855;DHT22;30591;48.228;16.398;2023-06-10T09:54:22;21.40;99.90
44855;DHT22;30591;48.228;16.398;2023-06-10T09:56:51;21.00;99.90
44855;DHT22;30591;48.228;16.398;2023-06-10T09:59:29;21.70;99.90
44855;DHT22;30591;48.228;16.398;2023-06-10T10:01:59;22.60;99.90
44855;DHT22;30591;48.228;16.398;2023-06-10T10:04:27;22.90;99.90
44855;DHT22;30591;48.228;16.398;2023-06-10T10:06:56;22.80;99.90
44855;DHT22;30591;48.228;16.398;2023-06-10T10:09:23;23.00;99.90
44855;DHT22;30591;48.228;16.398;2023-06-10T10:11:52;22.60;99.90
44855;DHT22;30591;48.228;16.398;2023-06-10T10:14:22;22.60;99.90
44855;DHT22;30591;48.228;16.398;2023-06-10T10:16:51;22.80;99.90
44855;DHT22;30591;48.228;16.398;2023-06-10T10:19:28;23.00;99.90
44855;DHT22;30591;48.228;16.398;2023-06-10T10:22:04;23.00;99.90
44855;DHT22;30591;48.228;16.398;2023-06-10T10:24:49;22.60;99.90
44855;DHT22;30591;48.228;16.398;2023-06-10T10:27:24;23.10;99.90
44855;DHT22;30591;48.228;16.398;2023-06-10T10:29:55;23.30;99.90
44855;DHT22;30591;48.228;16.398;2023-06-10T10:32:32;23.40;99.90
44855;DHT22;30591;48.228;16.398;2023-06-10T10:35:08;23.40;99.90
44855;DHT22;30591;48.228;16.398;2023-06-10T10:37:36;23.90;99.90
44855;DHT22;30591;48.228;16.398;2023-06-10T10:40:04;24.00;99.90
44855;DHT22;30591;48.228;16.398;2023-06-10T10:42:34;23.60;99.90
44855;DHT22;30591;48.228;16.398;2023-06-10T10:45:02;24.20;99.90
44855;DHT22;30591;48.228;16.398;2023-06-10T10:47:33;24.20;99.90
44855;DHT22;30591;48.228;16.398;2023-06-10T10:50:16;23.50;99.90
44855;DHT22;30591;48.228;16.398;2023-06-10T10:53:03;23.40;99.90
44855;DHT22;30591;48.228;16.398;2023-06-10T10:55:32;23.30;99.90
44855;DHT22;30591;48.228;16.398;2023-06-10T10:58:04;23.50;99.90
44855;DHT22;30591;48.228;16.398;2023-06-10T11:00:37;23.60;99.90
44855;DHT22;30591;48.228;16.398;2023-06-10T11:03:15;24.30;99.90
44855;DHT22;30591;48.228;16.398;2023-06-10T11:05:46;25.00;99.90
44855;DHT22;30591;48.228;16.398;2023-06-10T11:11:27;25.40;99.90
44855;DHT22;30591;48.228;16.398;2023-06-10T11:16:41;25.00;99.90
44855;DHT22;30591;48.228;16.398;2023-06-10T11:19:09;24.30;99.90
44855;DHT22;30591;48.228;16.398;2023-06-10T11:22:00;25.10;99.90
44855;DHT22;30591;48.228;16.398;2023-06-10T11:24:29;25.00;99.90
44855;DHT22;30591;48.228;16.398;2023-06-10T11:27:22;24.40;99.90
44855;DHT22;30591;48.228;16.398;2023-06-10T11:30:21;25.10;99.90
44855;DHT22;30591;48.228;16.398;2023-06-10T11:32:52;25.30;99.90
44855;DHT22;30591;48.228;16.398;2023-06-10T11:35:23;24.50;99.90
44855;DHT22;30591;48.228;16.398;2023-06-10T11:37:51;24.20;99.90
44855;DHT22;30591;48.228;16.398;2023-06-10T11:40:18;23.80;99.90
44855;DHT22;30591;48.228;16.398;2023-06-10T11:42:46;23.70;99.90
44855;DHT22;30591;48.228;16.398;2023-06-10T11:45:16;23.70;99.90
44855;DHT22;30591;48.228;16.398;2023-06-10T11:47:59;23.50;99.90
44855;DHT22;30591;48.228;16.398;2023-06-10T11:50:32;23.40;99.90
44855;DHT22;30591;48.228;16.398;2023-06-10T11:53:00;23.40;99.90
44855;DHT22;30591;48.228;16.398;2023-06-10T11:55:44;23.60;99.90
44855;DHT22;30591;48.228;16.398;2023-06-10T11:58:13;23.50;99.90
44855;DHT22;30591;48.228;16.398;2023-06-10T12:00:52;23.50;99.90
44855;DHT22;30591;48.228;16.398;2023-06-10T12:03:21;23.40;99.90
44855;DHT22;30591;48.228;16.398;2023-06-10T12:06:02;23.40;99.90
44855;DHT22;30591;48.228;16.398;2023-06-10T12:08:30;23.50;99.90
44855;DHT22;30591;48.228;16.398;2023-06-10T12:11:02;23.80;99.90
44855;DHT22;30591;48.228;16.398;2023-06-10T12:13:29;24.00;99.90
44855;DHT22;30591;48.228;16.398;2023-06-10T12:16:07;24.50;99.90
44855;DHT22;30591;48.228;16.398;2023-06-10T12:18:35;24.90;99.90
44855;DHT22;30591;48.228;16.398;2023-06-10T12:21:02;26.00;99.90
44855;DHT22;30591;48.228;16.398;2023-06-10T12:23:30;27.00;99.90
44855;DHT22;30591;48.228;16.398;2023-06-10T12:25:59;26.20;99.90
44855;DHT22;30591;48.228;16.398;2023-06-10T12:28:27;25.00;99.90
44855;DHT22;30591;48.228;16.398;2023-06-10T12:31:14;25.20;99.90
44855;DHT22;30591;48.228;16.398;2023-06-10T12:33:42;25.60;99.90
44855;DHT22;30591;48.228;16.398;2023-06-10T12:36:16;26.80;99.90
44855;DHT22;30591;48.228;16.398;2023-06-10T12:38:45;27.10;99.90
44855;DHT22;30591;48.228;16.398;2023-06-10T12:41:12;26.10;99.90
44855;DHT22;30591;48.228;16.398;2023-06-10T12:43:41;26.10;99.90
44855;DHT22;30591;48.228;16.398;2023-06-10T12:46:09;25.90;99.90
44855;DHT22;30591;48.228;16.398;2023-06-10T12:48:50;25.40;99.90
44855;DHT22;30591;48.228;16.398;2023-06-10T12:51:22;24.60;99.90
44855;DHT22;30591;48.228;16.398;2023-06-10T12:53:49;24.50;99.90
44855;DHT22;30591;48.228;16.398;2023-06-10T12:56:16;24.50;99.90
44855;DHT22;30591;48.228;16.398;2023-06-10T12:58:44;24.20;99.90
44855;DHT22;30591;48.228;16.398;2023-06-10T13:01:12;24.40;99.90
44855;DHT22;30591;48.228;16.398;2023-06-10T13:03:41;24.30;99.90
44855;DHT22;30591;48.228;16.398;2023-06-10T13:06:08;24.30;99.90
44855;DHT22;30591;48.228;16.398;2023-06-10T13:08:35;24.40;99.90
44855;DHT22;30591;48.228;16.398;2023-06-10T13:11:03;24.30;99.90
44855;DHT22;30591;48.228;16.398;2023-06-10T13:13:30;24.40;99.90
44855;DHT22;30591;48.228;16.398;2023-06-10T13:15:58;24.40;99.90
44855;DHT22;30591;48.228;16.398;2023-06-10T13:18:26;24.40;99.90
44855;DHT22;30591;48.228;16.398;2023-06-10T13:20:53;24.70;99.90
44855;DHT22;30591;48.228;16.398;2023-06-10T13:23:20;24.60;99.90
44855;DHT22;30591;48.228;16.398;2023-06-10T13:25:48;24.60;99.90
44855;DHT22;30591;48.228;16.398;2023-06-10T13:28:15;24.60;99.90
44855;DHT22;30591;48.228;16.398;2023-06-10T13:30:43;24.80;99.90
44855;DHT22;30591;48.228;16.398;2023-06-10T13:33:10;24.80;99.90
44855;DHT22;30591;48.228;16.398;2023-06-10T13:35:38;24.90;99.90
44855;DHT22;30591;48.228;16.398;2023-06-10T13:38:05;24.90;99.90
44855;DHT22;30591;48.228;16.398;2023-06-10T13:40:34;25.50;99.90
44855;DHT22;30591;48.228;16.398;2023-06-10T13:43:02;25.60;99.90
44855;DHT22;30591;48.228;16.398;2023-06-10T13:45:29;25.80;99.90
44855;DHT22;30591;48.228;16.398;2023-06-10T13:47:57;26.10;99.90
44855;DHT22;30591;48.228;16.398;2023-06-10T13:50:25;27.10;99.90
44855;DHT22;30591;48.228;16.398;2023-06-10T13:52:52;28.70;99.90
44855;DHT22;30591;48.228;16.398;2023-06-10T13:55:20;29.10;99.90
44855;DHT22;30591;48.228;16.398;2023-06-10T13:57:48;27.70;99.90
44855;DHT22;30591;48.228;16.398;2023-06-10T14:00:15;26.60;99.90
44855;DHT22;30591;48.228;16.398;2023-06-10T14:02:43;26.40;99.90
44855;DHT22;30591;48.228;16.398;2023-06-10T14:05:12;26.20;99.90
44855;DHT22;30591;48.228;16.398;2023-06-10T14:07:39;25.80;99.90
44855;DHT22;30591;48.228;16.398;2023-06-10T14:10:08;25.30;99.90
44855;DHT22;30591;48.228;16.398;2023-06-10T14:12:36;25.00;99.90
44855;DHT22;30591;48.228;16.398;2023-06-10T14:15:04;24.90;99.90
44855;DHT22;30591;48.228;16.398;2023-06-10T14:17:32;24.90;99.90
44855;DHT22;30591;48.228;16.398;2023-06-10T14:20:00;24.90;99.90
44855;DHT22;30591;48.228;16.398;2023-06-10T14:22:27;25.00;99.90
44855;DHT22;30591;48.228;16.398;2023-06-10T14:24:54;24.90;99.90
44855;DHT22;30591;48.228;16.398;2023-06-10T14:27:22;24.70;99.90
44855;DHT22;30591;48.228;16.398;2023-06-10T14:29:49;24.20;99.90
44855;DHT22;30591;48.228;16.398;2023-06-10T14:32:17;24.00;99.90
44855;DHT22;30591;48.228;16.398;2023-06-10T14:34:44;24.00;99.90
44855;DHT22;30591;48.228;16.398;2023-06-10T14:37:14;23.90;99.90
44855;DHT22;30591;48.228;16.398;2023-06-10T14:39:41;23.90;99.90
44855;DHT22;30591;48.228;16.398;2023-06-10T14:42:09;23.90;99.90
44855;DHT22;30591;48.228;16.398;2023-06-10T14:44:37;23.50;99.90
44855;DHT22;30591;48.228;16.398;2023-06-10T14:47:05;22.20;99.90
44855;DHT22;30591;48.228;16.398;2023-06-10T14:49:32;21.50;99.90
44855;DHT22;30591;48.228;16.398;2023-06-10T14:51:59;21.00;99.90
44855;DHT22;30591;48.228;16.398;2023-06-10T14:54:27;20.90;99.90
44855;DHT22;30591;48.228;16.398;2023-06-10T14:56:55;20.80;99.90
44855;DHT22;30591;48.228;16.398;2023-06-10T14:59:22;20.60;99.90
44855;DHT22;30591;48.228;16.398;2023-06-10T15:01:50;20.50;99.90
44855;DHT22;30591;48.228;16.398;2023-06-10T15:04:17;20.50;99.90
44855;DHT22;30591;48.228;16.398;2023-06-10T15:06:50;20.80;99.90
44855;DHT22;30591;48.228;16.398;2023-06-10T15:09:18;20.80;99.90
44855;DHT22;30591;48.228;16.398;2023-06-10T15:11:45;20.60;99.90
44855;DHT22;30591;48.228;16.398;2023-06-10T15:14:13;20.50;99.90
44855;DHT22;30591;48.228;16.398;2023-06-10T15:16:40;20.70;99.90
44855;DHT22;30591;48.228;16.398;2023-06-10T15:19:07;20.60;99.90
44855;DHT22;30591;48.228;16.398;2023-06-10T15:21:36;20.70;99.90
44855;DHT22;30591;48.228;16.398;2023-06-10T15:24:06;20.70;99.90
44855;DHT22;30591;48.228;16.398;2023-06-10T15:26:37;20.50;99.90
44855;DHT22;30591;48.228;16.398;2023-06-10T15:29:04;20.20;99.90
44855;DHT22;30591;48.228;16.398;2023-06-10T15:31:32;20.10;99.90
44855;DHT22;30591;48.228;16.398;2023-06-10T15:34:00;19.90;99.90
44855;DHT22;30591;48.228;16.398;2023-06-10T15:36:27;19.60;99.90
44855;DHT22;30591;48.228;16.398;2023-06-10T15:39:00;19.50;99.90
44855;DHT22;30591;48.228;16.398;2023-06-10T15:41:30;19.50;99.90
44855;DHT22;30591;48.228;16.398;2023-06-10T15:43:57;19.40;99.90
44855;DHT22;30591;48.228;16.398;2023-06-10T15:46:28;19.20;99.90
44855;DHT22;30591;48.228;16.398;2023-06-10T15:48:57;19.10;99.90
44855;DHT22;30591;48.228;16.398;2023-06-10T15:51:24;19.10;99.90
44855;DHT22;30591;48.228;16.398;2023-06-10T15:53:52;19.10;99.90
44855;DHT22;30591;48.228;16.398;2023-06-10T15:56:19;19.10;99.90
44855;DHT22;30591;48.228;16.398;2023-06-10T15:58:48;19.00;99.90